createdAt,value
2023-03-12T00:01:59.673Z,101334.41
2023-03-12T00:04:26.823Z,101336.63
2023-03-12T00:06:53.214Z,101325.97
2023-03-12T00:09:19.962Z,101321.47
2023-03-12T00:11:46.378Z,101316.78
2023-03-12T00:14:12.708Z,101317.28
2023-03-12T00:16:39.132Z,101317.19
2023-03-12T00:19:05.691Z,101310.91
2023-03-12T00:21:32.121Z,101312.84
2023-03-12T00:23:58.586Z,101318.66
2023-03-12T00:26:24.914Z,101319.22
2023-03-12T00:28:51.752Z,101308.53
2023-03-12T00:31:21.095Z,101295.50
2023-03-12T00:33:49.928Z,101303.28
2023-03-12T00:36:18.108Z,101294.50
2023-03-12T00:38:44.717Z,101302.72
2023-03-12T00:41:11.086Z,101296.31
2023-03-12T00:43:37.446Z,101301.25
2023-03-12T00:46:03.933Z,101308.75
2023-03-12T00:48:30.292Z,101298.16
2023-03-12T00:50:56.680Z,101301.75
2023-03-12T00:53:23.117Z,101301.63
2023-03-12T00:55:49.483Z,101297.84
2023-03-12T00:58:15.845Z,101292.72
2023-03-12T01:00:42.212Z,101293.88
2023-03-12T01:03:08.659Z,101291.47
2023-03-12T01:05:40.494Z,101288.09
2023-03-12T01:08:08.882Z,101289.19
2023-03-12T01:10:36.481Z,101279.78
2023-03-12T01:13:03.458Z,101266.00
2023-03-12T01:15:30.015Z,101259.91
2023-03-12T01:17:56.428Z,101260.88
2023-03-12T01:20:23.176Z,101263.47
2023-03-12T01:22:49.774Z,101257.94
2023-03-12T01:25:16.209Z,101257.00
2023-03-12T01:27:42.629Z,101265.63
2023-03-12T01:30:10.417Z,101260.19
2023-03-12T01:32:36.992Z,101260.19
2023-03-12T01:35:03.659Z,101270.56
2023-03-12T01:37:31.829Z,101269.47
2023-03-12T01:39:58.477Z,101267.66
2023-03-12T01:42:24.949Z,101259.78
2023-03-12T01:45:00.411Z,101254.25
2023-03-12T01:47:31.794Z,101252.25
2023-03-12T01:50:00.557Z,101248.44
2023-03-12T01:52:36.646Z,101251.72
2023-03-12T01:55:09.423Z,101251.63
2023-03-12T01:57:51.009Z,101246.34
2023-03-12T02:00:27.582Z,101236.00
2023-03-12T02:02:59.750Z,101234.84
2023-03-12T02:06:03.684Z,101233.75
2023-03-12T02:08:30.496Z,101229.56
2023-03-12T02:10:56.840Z,101230.31
2023-03-12T02:13:23.266Z,101214.66
2023-03-12T02:15:49.702Z,101212.94
2023-03-12T02:18:18.992Z,101211.00
2023-03-12T02:20:53.278Z,101210.91
2023-03-12T02:23:35.097Z,101202.19
2023-03-12T02:26:03.911Z,101201.25
2023-03-12T02:28:30.501Z,101191.63
2023-03-12T02:31:00.406Z,101193.19
2023-03-12T02:33:27.271Z,101201.09
2023-03-12T02:35:54.718Z,101191.63
2023-03-12T02:38:45.905Z,101177.84
2023-03-12T02:41:16.449Z,101172.50
2023-03-12T02:43:46.269Z,101168.84
2023-03-12T02:46:13.895Z,101169.53
2023-03-12T02:48:40.401Z,101176.50
2023-03-12T02:51:07.304Z,101172.09
2023-03-12T02:53:33.757Z,101172.88
2023-03-12T02:56:00.126Z,101161.69
2023-03-12T02:58:26.589Z,101158.19
2023-03-12T03:00:52.969Z,101154.38
2023-03-12T03:03:19.372Z,101143.69
2023-03-12T03:05:45.922Z,101140.31
2023-03-12T03:08:12.340Z,101145.66
2023-03-12T03:10:39.023Z,101140.31
2023-03-12T03:13:05.423Z,101127.16
2023-03-12T03:15:31.904Z,101121.75
2023-03-12T03:17:58.432Z,101126.78
2023-03-12T03:20:26.554Z,101132.19
2023-03-12T03:22:52.937Z,101130.59
2023-03-12T03:25:22.181Z,101119.28
2023-03-12T03:27:48.812Z,101122.78
2023-03-12T03:30:16.720Z,101112.31
2023-03-12T03:32:43.092Z,101111.34
2023-03-12T03:35:10.021Z,101098.34
2023-03-12T03:37:36.397Z,101090.28
2023-03-12T03:40:03.476Z,101089.94
2023-03-12T03:42:29.941Z,101092.28
2023-03-12T03:44:56.301Z,101093.97
2023-03-12T03:47:22.914Z,101083.72
2023-03-12T03:49:49.382Z,101078.53
2023-03-12T03:52:15.820Z,101077.53
2023-03-12T03:54:42.150Z,101063.28
2023-03-12T03:57:08.511Z,101064.91
2023-03-12T03:59:34.919Z,101058.94
2023-03-12T04:02:02.235Z,101047.00
2023-03-12T04:04:28.871Z,101069.66
2023-03-12T04:06:55.304Z,101069.56
2023-03-12T04:09:21.661Z,101074.69
2023-03-12T04:11:48.120Z,101075.63
2023-03-12T04:14:14.661Z,101075.47
2023-03-12T04:16:41.101Z,101072.72
2023-03-12T04:19:07.485Z,101070.13
2023-03-12T04:21:33.899Z,101071.81
2023-03-12T04:24:00.228Z,101067.34
2023-03-12T04:26:26.692Z,101056.63
2023-03-12T04:28:53.070Z,101057.09
2023-03-12T04:31:19.619Z,101049.22
2023-03-12T04:33:46.579Z,101050.69
2023-03-12T04:36:14.552Z,101043.75
2023-03-12T04:38:40.949Z,101048.97
2023-03-12T04:41:11.575Z,101045.47
2023-03-12T04:43:37.956Z,101047.28
2023-03-12T04:46:04.857Z,101028.31
2023-03-12T04:48:31.373Z,101035.38
2023-03-12T04:50:57.900Z,101027.06
2023-03-12T04:53:25.214Z,101028.47
2023-03-12T04:55:51.773Z,101014.09
2023-03-12T04:58:19.586Z,101006.06
2023-03-12T05:00:47.216Z,100998.56
2023-03-12T05:03:13.759Z,100986.59
2023-03-12T05:05:40.233Z,100982.31
2023-03-12T05:08:06.573Z,100978.88
2023-03-12T05:10:33.469Z,100970.16
2023-03-12T05:13:00.266Z,100964.94
2023-03-12T05:15:26.907Z,100971.69
2023-03-12T05:17:54.774Z,100975.06
2023-03-12T05:20:21.431Z,100965.41
2023-03-12T05:22:47.837Z,100957.47
2023-03-12T05:25:14.474Z,100956.44
2023-03-12T05:27:40.888Z,100958.06
2023-03-12T05:30:07.904Z,100964.03
2023-03-12T05:32:34.412Z,100967.38
2023-03-12T05:35:00.903Z,100970.78
2023-03-12T05:37:27.369Z,100955.00
2023-03-12T05:39:54.609Z,100956.53
2023-03-12T05:42:21.074Z,100965.19
2023-03-12T05:44:47.413Z,100952.81
2023-03-12T05:47:13.746Z,100942.41
2023-03-12T05:49:40.371Z,100947.47
2023-03-12T05:52:06.861Z,100939.50
2023-03-12T05:54:33.347Z,100935.75
2023-03-12T05:56:59.811Z,100929.69
2023-03-12T05:59:26.602Z,100926.84
2023-03-12T06:01:52.995Z,100937.94
2023-03-12T06:04:19.432Z,100937.69
2023-03-12T06:06:46.408Z,100930.56
2023-03-12T06:09:13.158Z,100936.53
2023-03-12T06:11:39.491Z,100930.63
2023-03-12T06:14:05.897Z,100934.16
2023-03-12T06:16:32.358Z,100934.41
2023-03-12T06:19:01.077Z,100940.63
2023-03-12T06:21:30.782Z,100933.03
2023-03-12T06:23:57.301Z,100942.72
2023-03-12T06:26:24.250Z,100933.22
2023-03-12T06:28:51.112Z,100941.78
2023-03-12T06:31:18.479Z,100934.91
2023-03-12T06:33:44.886Z,100924.50
2023-03-12T06:36:12.562Z,100927.09
2023-03-12T06:38:39.553Z,100926.34
2023-03-12T06:41:08.812Z,100926.47
2023-03-12T06:43:36.546Z,100914.41
2023-03-12T06:46:04.405Z,100909.19
2023-03-12T06:48:36.750Z,100922.22
2023-03-12T06:51:04.484Z,100914.72
2023-03-12T06:53:32.057Z,100910.75
2023-03-12T06:55:58.672Z,100906.63
2023-03-12T06:58:25.158Z,100904.94
2023-03-12T07:00:52.739Z,100896.22
2023-03-12T07:03:19.509Z,100895.53
2023-03-12T07:05:47.486Z,100883.47
2023-03-12T07:08:14.364Z,100884.28
2023-03-12T07:10:40.889Z,100876.50
2023-03-12T07:13:07.503Z,100879.75
2023-03-12T07:15:34.166Z,100866.50
2023-03-12T07:18:11.610Z,100860.28
2023-03-12T07:20:40.477Z,100850.66
2023-03-12T07:23:07.760Z,100857.31
2023-03-12T07:25:38.795Z,100864.19
2023-03-12T07:28:06.218Z,100864.94
2023-03-12T07:30:33.589Z,100867.53
2023-03-12T07:33:12.049Z,100869.91
2023-03-12T07:35:39.132Z,100866.38
2023-03-12T07:38:06.631Z,100867.22
2023-03-12T07:40:33.749Z,100879.16
2023-03-12T07:43:00.449Z,100887.72
2023-03-12T07:45:27.092Z,100887.53
2023-03-12T07:47:53.478Z,100896.13
2023-03-12T07:50:20.243Z,100903.69
2023-03-12T07:52:47.288Z,100889.75
2023-03-12T07:55:13.903Z,100900.84
2023-03-12T07:57:40.792Z,100909.41
2023-03-12T08:00:10.165Z,100910.09
2023-03-12T08:02:36.851Z,100902.19
2023-03-12T08:05:03.540Z,100905.38
2023-03-12T08:07:32.391Z,100903.53
2023-03-12T08:09:59.756Z,100900.59
2023-03-12T08:12:26.616Z,100898.59
2023-03-12T08:14:53.063Z,100893.28
2023-03-12T08:17:20.366Z,100881.88
2023-03-12T08:19:46.784Z,100885.03
2023-03-12T08:22:13.215Z,100888.41
2023-03-12T08:24:39.618Z,100883.97
2023-03-12T08:27:06.106Z,100879.50
2023-03-12T08:29:33.526Z,100883.53
2023-03-12T08:32:05.411Z,100893.69
2023-03-12T08:34:33.988Z,100886.47
2023-03-12T08:37:01.072Z,100887.03
2023-03-12T08:39:27.396Z,100884.84
2023-03-12T08:41:55.340Z,100883.63
2023-03-12T08:44:23.176Z,100886.72
2023-03-12T08:46:49.863Z,100877.63
2023-03-12T08:49:16.392Z,100883.41
2023-03-12T08:51:42.888Z,100891.00
2023-03-12T08:54:09.497Z,100887.34
2023-03-12T08:56:42.343Z,100879.00
2023-03-12T08:59:10.400Z,100889.94
2023-03-12T09:01:36.839Z,100895.78
2023-03-12T09:04:04.203Z,100889.28
2023-03-12T09:06:30.942Z,100890.53
2023-03-12T09:08:57.701Z,100890.78
2023-03-12T09:11:24.114Z,100897.31
2023-03-12T09:14:18.668Z,100889.84
2023-03-12T09:16:37.124Z,100878.13
2023-03-12T09:19:04.527Z,100880.91
2023-03-12T09:21:31.019Z,100876.59
2023-03-12T09:23:57.665Z,100868.75
2023-03-12T09:26:24.140Z,100869.19
2023-03-12T09:28:50.572Z,100874.00
2023-03-12T09:31:17.056Z,100869.63
2023-03-12T09:33:43.515Z,100861.47
2023-03-12T09:36:10.290Z,100862.81
2023-03-12T09:38:37.849Z,100858.47
2023-03-12T09:41:05.751Z,100876.28
2023-03-12T09:43:44.814Z,100863.56
2023-03-12T09:46:24.306Z,100870.06
2023-03-12T09:48:53.246Z,100870.91
2023-03-12T09:51:38.064Z,100872.75
2023-03-12T09:54:14.160Z,100878.09
2023-03-12T09:56:40.978Z,100889.13
2023-03-12T09:59:12.492Z,100873.09
2023-03-12T10:01:54.757Z,100871.75
2023-03-12T10:04:52.386Z,100877.28
2023-03-12T10:07:37.803Z,100880.94
2023-03-12T10:10:16.660Z,100880.63
2023-03-12T10:12:58.367Z,100874.47
2023-03-12T10:15:34.217Z,100878.22
2023-03-12T10:18:26.542Z,100877.69
2023-03-12T10:21:19.083Z,100876.63
2023-03-12T10:23:56.927Z,100872.31
2023-03-12T10:26:25.524Z,100871.34
2023-03-12T10:29:01.895Z,100873.34
2023-03-12T10:31:37.273Z,100867.47
2023-03-12T10:34:15.509Z,100863.22
2023-03-12T10:36:42.134Z,100879.00
2023-03-12T10:39:16.604Z,100870.47
2023-03-12T10:41:45.605Z,100876.09
2023-03-12T10:44:19.874Z,100878.78
2023-03-12T10:46:47.160Z,100872.41
2023-03-12T10:49:25.857Z,100870.19
2023-03-12T10:52:16.294Z,100864.94
2023-03-12T10:54:45.021Z,100867.00
2023-03-12T10:57:13.042Z,100860.97
2023-03-12T10:59:43.182Z,100865.06
2023-03-12T11:02:34.900Z,100858.84
2023-03-12T11:05:03.498Z,100864.31
2023-03-12T11:07:32.826Z,100859.91
2023-03-12T11:10:08.417Z,100866.47
2023-03-12T11:12:37.533Z,100864.78
2023-03-12T11:15:35.981Z,100855.38
2023-03-12T11:18:18.656Z,100861.94
2023-03-12T11:20:45.420Z,100871.00
2023-03-12T11:23:21.805Z,100877.66
2023-03-12T11:26:02.849Z,100877.78
2023-03-12T11:28:37.665Z,100887.25
2023-03-12T11:31:10.195Z,100886.28
2023-03-12T11:33:36.912Z,100880.06
2023-03-12T11:36:15.409Z,100885.94
2023-03-12T11:38:48.590Z,100874.94
2023-03-12T11:41:41.733Z,100874.56
2023-03-12T11:44:23.238Z,100877.41
2023-03-12T11:47:06.594Z,100882.94
2023-03-12T11:49:44.019Z,100881.50
2023-03-12T11:52:28.669Z,100870.97
2023-03-12T11:55:31.419Z,100876.00
2023-03-12T11:57:57.974Z,100876.84
2023-03-12T12:00:33.235Z,100864.97
2023-03-12T12:03:21.501Z,100862.56
2023-03-12T12:05:56.791Z,100852.63
2023-03-12T12:08:56.094Z,100844.09
2023-03-12T12:11:33.696Z,100847.59
2023-03-12T12:14:11.640Z,100841.94
2023-03-12T12:17:15.553Z,100845.22
2023-03-12T12:20:00.625Z,100853.84
2023-03-12T12:22:33.100Z,100842.13
2023-03-12T12:25:18.398Z,100846.97
2023-03-12T12:27:53.996Z,100857.91
2023-03-12T12:30:26.505Z,100843.53
2023-03-12T12:33:23.832Z,100839.88
2023-03-12T12:35:50.557Z,100830.66
2023-03-12T12:38:53.958Z,100822.19
2023-03-12T12:41:31.117Z,100821.09
2023-03-12T12:44:14.863Z,100826.91
2023-03-12T12:46:50.299Z,100841.06
2023-03-12T12:49:57.433Z,100836.38
2023-03-12T12:52:24.785Z,100828.63
2023-03-12T12:55:22.527Z,100832.47
2023-03-12T12:58:12.382Z,100820.34
2023-03-12T13:00:49.301Z,100801.81
2023-03-12T13:03:22.020Z,100811.84
2023-03-12T13:06:05.049Z,100810.72
2023-03-12T13:08:51.303Z,100807.63
2023-03-12T13:11:20.642Z,100806.56
2023-03-12T13:14:11.825Z,100798.25
2023-03-12T13:16:43.652Z,100797.97
2023-03-12T13:19:15.940Z,100799.91
2023-03-12T13:22:10.008Z,100819.59
2023-03-12T13:24:51.788Z,100819.88
2023-03-12T13:27:39.503Z,100811.25
2023-03-12T13:30:45.391Z,100803.53
2023-03-12T13:33:15.667Z,100810.72
2023-03-12T13:35:42.296Z,100804.06
2023-03-12T13:38:17.624Z,100800.59
2023-03-12T13:41:00.850Z,100817.06
2023-03-12T13:43:40.413Z,100807.47
2023-03-12T13:46:20.896Z,100801.28
2023-03-12T13:48:49.036Z,100821.09
2023-03-12T13:51:19.785Z,100828.63
2023-03-12T13:54:01.288Z,100833.09
2023-03-12T13:56:31.062Z,100818.44
2023-03-12T13:59:01.722Z,100820.53
2023-03-12T14:01:37.221Z,100802.97
2023-03-12T14:04:13.097Z,100815.59
2023-03-12T14:07:02.045Z,100816.00
2023-03-12T14:09:57.582Z,100819.63
2023-03-12T14:13:06.451Z,100813.66
2023-03-12T14:15:44.328Z,100825.84
2023-03-12T14:18:20.609Z,100819.69
2023-03-12T14:20:56.526Z,100824.81
2023-03-12T14:23:27.296Z,100828.91
2023-03-12T14:26:00.137Z,100839.34
2023-03-12T14:28:28.894Z,100837.03
2023-03-12T14:31:05.150Z,100858.63
2023-03-12T14:33:44.448Z,100858.06
2023-03-12T14:36:21.214Z,100854.88
2023-03-12T14:38:49.225Z,100884.50
2023-03-12T14:41:31.201Z,100855.59
2023-03-12T14:44:06.018Z,100868.81
2023-03-12T14:46:32.454Z,100840.53
2023-03-12T14:48:59.084Z,100860.00
2023-03-12T14:51:29.432Z,100853.75
2023-03-12T14:53:56.617Z,100852.50
2023-03-12T14:56:29.273Z,100865.25
2023-03-12T14:58:57.033Z,100855.25
2023-03-12T15:01:33.485Z,100867.22
2023-03-12T15:04:06.377Z,100858.75
2023-03-12T15:06:37.348Z,100856.69
2023-03-12T15:09:06.345Z,100865.84
2023-03-12T15:11:35.582Z,100865.88
2023-03-12T15:14:05.672Z,100859.50
2023-03-12T15:16:32.757Z,100868.41
2023-03-12T15:18:59.779Z,100864.66
2023-03-12T15:21:26.446Z,100864.38
2023-03-12T15:23:54.059Z,100856.84
2023-03-12T15:26:20.342Z,100855.75
2023-03-12T15:29:15.072Z,100856.97
2023-03-12T15:31:43.757Z,100848.78
2023-03-12T15:34:12.309Z,100846.97
2023-03-12T15:36:47.399Z,100841.44
2023-03-12T15:39:29.783Z,100842.41
2023-03-12T15:42:01.383Z,100834.19
2023-03-12T15:44:32.012Z,100840.88
2023-03-12T15:47:13.318Z,100843.13
2023-03-12T15:49:40.864Z,100836.56
2023-03-12T15:52:19.213Z,100839.75
2023-03-12T15:55:07.581Z,100832.78
2023-03-12T15:57:35.183Z,100829.72
2023-03-12T16:00:13.726Z,100838.34
2023-03-12T16:02:57.911Z,100835.84
2023-03-12T16:05:31.280Z,100842.25
2023-03-12T16:08:00.616Z,100839.16
2023-03-12T16:10:27.975Z,100839.84
2023-03-12T16:13:02.255Z,100833.59
2023-03-12T16:15:36.271Z,100825.53
2023-03-12T16:18:02.901Z,100823.03
2023-03-12T16:20:29.625Z,100812.72
2023-03-12T16:22:56.221Z,100821.75
2023-03-12T16:25:23.701Z,100821.16
2023-03-12T16:27:54.755Z,100818.97
2023-03-12T16:30:26.487Z,100821.84
2023-03-12T16:32:53.015Z,100816.88
2023-03-12T16:35:20.728Z,100824.06
2023-03-12T16:37:47.277Z,100806.84
2023-03-12T16:40:24.003Z,100810.31
2023-03-12T16:43:02.540Z,100808.66
2023-03-12T16:45:30.550Z,100805.44
2023-03-12T16:48:02.231Z,100812.66
2023-03-12T16:50:29.288Z,100796.41
2023-03-12T16:52:55.781Z,100807.34
2023-03-12T16:55:25.375Z,100795.28
2023-03-12T16:57:59.239Z,100801.50
2023-03-12T17:00:29.474Z,100813.41
2023-03-12T17:02:57.960Z,100814.94
2023-03-12T17:05:26.480Z,100811.75
2023-03-12T17:07:53.230Z,100812.00
2023-03-12T17:10:19.922Z,100822.69
2023-03-12T17:12:48.332Z,100830.59
2023-03-12T17:15:19.986Z,100833.75
2023-03-12T17:17:47.411Z,100834.72
2023-03-12T17:20:15.631Z,100828.91
2023-03-12T17:22:42.136Z,100848.19
2023-03-12T17:25:19.945Z,100835.97
2023-03-12T17:27:46.314Z,100828.06
2023-03-12T17:30:13.138Z,100831.09
2023-03-12T17:32:39.643Z,100829.81
2023-03-12T17:35:06.766Z,100824.53
2023-03-12T17:37:34.631Z,100834.63
2023-03-12T17:40:05.535Z,100831.53
2023-03-12T17:42:31.929Z,100828.50
2023-03-12T17:44:58.282Z,100832.34
2023-03-12T17:47:24.692Z,100856.16
2023-03-12T17:49:51.025Z,100849.09
2023-03-12T17:52:17.420Z,100848.41
2023-03-12T17:54:43.778Z,100849.81
2023-03-12T17:57:10.261Z,100854.25
2023-03-12T17:59:36.582Z,100849.47
2023-03-12T18:02:03.473Z,100848.41
2023-03-12T18:04:30.043Z,100854.25
2023-03-12T18:06:56.479Z,100841.19
2023-03-12T18:09:23.295Z,100845.78
2023-03-12T18:11:49.725Z,100840.50
2023-03-12T18:14:16.045Z,100829.25
2023-03-12T18:16:42.481Z,100846.00
2023-03-12T18:19:08.893Z,100838.38
2023-03-12T18:21:35.208Z,100838.38
2023-03-12T18:24:08.260Z,100838.28
2023-03-12T18:26:40.061Z,100859.38
2023-03-12T18:29:06.561Z,100849.03
2023-03-12T18:31:32.905Z,100845.31
2023-03-12T18:33:59.320Z,100836.81
2023-03-12T18:36:25.700Z,100843.03
2023-03-12T18:38:52.033Z,100840.69
2023-03-12T18:41:18.405Z,100845.97
2023-03-12T18:43:44.733Z,100837.41
2023-03-12T18:46:12.870Z,100835.03
2023-03-12T18:48:39.260Z,100835.88
2023-03-12T18:51:05.831Z,100814.78
2023-03-12T18:53:33.837Z,100835.88
2023-03-12T18:56:00.241Z,100838.50
2023-03-12T18:58:27.833Z,100837.53
2023-03-12T19:00:56.166Z,100829.03
2023-03-12T19:03:23.575Z,100830.09
2023-03-12T19:06:04.127Z,100831.31
2023-03-12T19:08:30.515Z,100834.19
2023-03-12T19:10:56.996Z,100821.09
2023-03-12T19:13:23.450Z,100828.72
2023-03-12T19:15:49.890Z,100838.88
2023-03-12T19:18:16.253Z,100824.59
2023-03-12T19:20:42.631Z,100807.41
2023-03-12T19:23:08.980Z,100821.28
2023-03-12T19:25:35.378Z,100819.63
2023-03-12T19:28:01.829Z,100806.59
2023-03-12T19:30:30.502Z,100801.31
2023-03-12T19:32:56.940Z,100807.66
2023-03-12T19:35:23.423Z,100795.22
2023-03-12T19:37:49.781Z,100797.44
2023-03-12T19:40:16.491Z,100795.78
2023-03-12T19:42:42.826Z,100807.13
2023-03-12T19:45:10.256Z,100800.50
2023-03-12T19:47:36.704Z,100797.75
2023-03-12T19:50:03.326Z,100802.19
2023-03-12T19:52:30.025Z,100794.13
2023-03-12T19:55:04.410Z,100796.06
2023-03-12T19:57:31.756Z,100797.75
2023-03-12T19:59:58.195Z,100796.06
2023-03-12T20:02:24.838Z,100793.00
2023-03-12T20:04:51.422Z,100786.34
2023-03-12T20:07:18.412Z,100783.25
2023-03-12T20:09:44.876Z,100781.59
2023-03-12T20:12:11.386Z,100778.00
2023-03-12T20:14:37.712Z,100777.41
2023-03-12T20:17:04.093Z,100773.94
2023-03-12T20:19:30.438Z,100761.03
2023-03-12T20:21:57.236Z,100758.41
2023-03-12T20:24:23.964Z,100757.44
2023-03-12T20:26:50.311Z,100745.47
2023-03-12T20:29:16.681Z,100750.34
2023-03-12T20:31:43.154Z,100738.38
2023-03-12T20:34:09.558Z,100728.00
2023-03-12T20:36:35.914Z,100738.66
2023-03-12T20:39:02.263Z,100726.44
2023-03-12T20:41:28.700Z,100730.31
2023-03-12T20:43:57.369Z,100732.41
2023-03-12T20:46:24.236Z,100729.06
2023-03-12T20:48:50.714Z,100720.34
2023-03-12T20:51:17.529Z,100714.97
2023-03-12T20:53:43.969Z,100713.25
2023-03-12T20:56:11.068Z,100706.78
2023-03-12T20:58:37.908Z,100711.09
2023-03-12T21:01:05.545Z,100708.19
2023-03-12T21:03:32.641Z,100698.59
2023-03-12T21:06:01.397Z,100696.69
2023-03-12T21:08:28.897Z,100703.63
2023-03-12T21:10:55.595Z,100698.09
2023-03-12T21:13:23.221Z,100698.91
2023-03-12T21:15:50.159Z,100690.19
2023-03-12T21:18:17.421Z,100684.22
2023-03-12T21:20:44.765Z,100687.81
2023-03-12T21:23:11.771Z,100677.44
2023-03-12T21:25:40.162Z,100676.47
2023-03-12T21:28:07.884Z,100663.44
2023-03-12T21:30:34.617Z,100655.09
2023-03-12T21:33:02.414Z,100656.75
2023-03-12T21:35:29.587Z,100650.66
2023-03-12T21:37:56.609Z,100650.91
2023-03-12T21:40:23.912Z,100647.06
2023-03-12T21:42:50.556Z,100643.59
2023-03-12T21:45:17.109Z,100636.91
2023-03-12T21:47:43.548Z,100623.19
2023-03-12T21:50:10.903Z,100617.09
2023-03-12T21:52:42.925Z,100614.72
2023-03-12T21:55:10.400Z,100608.75
2023-03-12T21:57:36.810Z,100599.34
2023-03-12T22:00:04.713Z,100593.50
2023-03-12T22:02:31.679Z,100581.56
2023-03-12T22:05:00.837Z,100587.09
2023-03-12T22:07:29.947Z,100582.13
2023-03-12T22:09:56.648Z,100568.38
2023-03-12T22:12:23.290Z,100564.22
2023-03-12T22:14:49.626Z,100561.59
2023-03-12T22:17:17.088Z,100555.75
2023-03-12T22:19:43.804Z,100545.34
2023-03-12T22:22:11.438Z,100545.06
2023-03-12T22:24:37.824Z,100553.25
2023-03-12T22:27:07.290Z,100534.84
2023-03-12T22:29:34.438Z,100541.47
2023-03-12T22:32:01.072Z,100531.91
2023-03-12T22:34:29.379Z,100522.50
2023-03-12T22:36:55.748Z,100524.69
2023-03-12T22:39:22.065Z,100521.63
2023-03-12T22:41:50.658Z,100523.72
2023-03-12T22:44:17.144Z,100512.75
2023-03-12T22:46:43.625Z,100516.59
2023-03-12T22:49:10.054Z,100508.84
2023-03-12T22:51:36.536Z,100512.56
2023-03-12T22:54:03.062Z,100519.03
2023-03-12T22:56:29.524Z,100506.59
2023-03-12T22:58:56.127Z,100516.22
2023-03-12T23:01:23.483Z,100502.91
2023-03-12T23:03:50.648Z,100502.75
2023-03-12T23:06:23.385Z,100499.03
2023-03-12T23:08:51.271Z,100483.25
2023-03-12T23:11:20.860Z,100484.50
2023-03-12T23:13:48.250Z,100477.28
2023-03-12T23:16:20.942Z,100473.84
2023-03-12T23:18:48.337Z,100466.19
2023-03-12T23:21:20.319Z,100465.25
2023-03-12T23:23:47.939Z,100456.53
2023-03-12T23:26:23.790Z,100448.91
2023-03-12T23:28:53.175Z,100446.66
2023-03-12T23:31:19.827Z,100437.53
2023-03-12T23:33:46.353Z,100425.59
2023-03-12T23:36:15.905Z,100413.41
2023-03-12T23:38:42.923Z,100412.00
2023-03-12T23:41:16.091Z,100401.25
2023-03-12T23:43:42.606Z,100390.75
2023-03-12T23:46:10.772Z,100374.13
2023-03-12T23:48:41.125Z,100362.75
2023-03-12T23:51:16.117Z,100359.31
2023-03-12T23:53:44.825Z,100350.59
2023-03-12T23:56:15.005Z,100343.69
2023-03-12T23:58:42.833Z,100347.72
